Saint-Roch-Des-Aulnaies, Canada
Current Conditions -  °F | °C
As of 1:00 AM on Sunday 21 Dec 2014 (Local Time) from CYQB Reporting Station
Light Snow Light Snow  
Wind Chill: 18°   Ceiling: 1400
Heat Index: 18°   Visibility: 15mi
Dew Point: 12°   Wind: 3mph
Humidity: 79%   Direction: 130°SE
Pressure: 30.37"   Gusts: NA
Location:  47.32°N, 70.18°W
Report Text: CYQB 210600Z 13003KT 15SM -SN OVC014 M08/M11 A3037 RMK SC8 SLP290
Loading
Personal Weather Stations






























Interactive Weather Map New forecast layout! Learn more

10-Day Weather Forecast

Advertisements
Track Severe Weather on mobile